Time;durP1;ratioP1;P1;durP2;ratioP2;P2;SDS_P1;SDS_P2;PMS_P1;PMS_P2;Temp;Humidity;BMP_temperature;BMP_pressure;BME280_temperature;BME280_humidity;BME280_pressure;Samples;Min_cycle;Max_cycle;Signal;HPM_P1;HPM_P2
2022/05/01 08:29:10;;;;;;;8.40;5.95;;;;;;;27.23;23.91;102584.47;4996971;28;20050;-72
2022/05/01 08:31:35;;;;;;;11.10;6.07;;;;;;;29.15;21.95;102578.97;5025118;28;20359;-71
2022/05/01 08:34:01;;;;;;;8.13;5.18;;;;;;;29.81;21.06;102579.34;5011414;28;20030;-71
2022/05/01 08:36:28;;;;;;;8.93;6.15;;;;;;;29.34;21.53;102581.44;5004205;28;20177;-70
2022/05/01 08:38:53;;;;;;;9.23;5.45;;;;;;;31.89;19.88;102577.75;4990320;28;20026;-71
2022/05/01 08:41:19;;;;;;;9.93;6.07;;;;;;;29.51;20.19;102590.28;5024255;28;20125;-71
2022/05/01 08:43:44;;;;;;;9.70;5.90;;;;;;;30.57;20.64;102583.41;4990877;28;20026;-72
2022/05/01 08:46:19;;;;;;;9.30;6.18;;;;;;;30.28;19.68;102578.09;5007055;28;20022;-71
2022/05/01 08:49:07;;;;;;;14.45;7.65;;;;;;;30.26;20.01;102577.31;4992054;28;20379;-71
2022/05/01 08:51:37;;;;;;;8.25;5.65;;;;;;;31.09;20.20;102578.94;4991108;28;20057;-71
2022/05/01 08:54:05;;;;;;;8.40;5.35;;;;;;;32.11;18.72;102566.19;5006872;28;20034;-71
2022/05/01 08:56:33;;;;;;;7.35;4.82;;;;;;;30.91;19.06;102578.38;4992216;28;20034;-71
2022/05/01 08:59:00;;;;;;;6.85;5.68;;;;;;;27.65;22.09;102584.09;4991211;28;20390;-71
2022/05/01 09:01:26;;;;;;;9.35;5.57;;;;;;;26.37;23.78;102586.19;4991634;28;20022;-71
2022/05/01 09:03:52;;;;;;;8.23;4.95;;;;;;;24.74;26.17;102584.63;4991830;28;20610;-71
2022/05/01 09:06:18;;;;;;;8.57;5.82;;;;;;;23.68;27.16;102589.66;4991240;28;20018;-71
2022/05/01 09:08:44;;;;;;;6.82;5.10;;;;;;;24.76;26.37;102577.41;4990774;28;20030;-71
2022/05/01 09:13:53;;;;;;;6.70;4.30;;;;;;;24.57;26.10;102587.97;4991339;28;20481;-70
2022/05/01 09:16:19;;;;;;;7.63;4.70;;;;;;;23.78;26.04;102587.53;5007299;28;20054;-71
2022/05/01 09:18:46;;;;;;;8.38;5.18;;;;;;;24.70;26.22;102581.22;4990143;28;20019;-71
2022/05/01 09:21:12;;;;;;;9.10;5.65;;;;;;;23.86;27.04;102593.44;4990173;28;20500;-71
2022/05/01 09:23:45;;;;;;;8.50;5.55;;;;;;;25.16;25.96;102596.22;4990213;28;20018;-71
2022/05/01 09:26:11;;;;;;;;;;;;;;;24.51;26.47;102594.44;4991302;28;20030;-71
2022/05/01 09:28:46;;;;;;;10.13;5.93;;;;;;;24.26;25.46;102593.69;4990462;28;19997;-71
2022/05/01 09:31:11;;;;;;;8.18;5.00;;;;;;;24.63;25.54;102597.56;4990551;28;20046;-71
2022/05/01 09:33:37;;;;;;;7.13;4.80;;;;;;;25.29;23.73;102596.53;4989594;28;20034;-71
2022/05/01 09:36:02;;;;;;;7.80;5.18;;;;;;;25.12;25.80;102605.31;4991033;28;20034;-71
2022/05/01 09:38:27;;;;;;;8.00;4.88;;;;;;;26.45;24.36;102592.03;5006933;28;20045;-71
2022/05/01 09:41:30;;;;;;;7.10;4.72;;;;;;;27.04;22.32;102589.09;5018024;23;20049;-71
2022/05/01 09:43:55;;;;;;;6.35;4.85;;;;;;;26.63;22.38;102586.69;5017167;28;20166;-70
2022/05/01 09:46:22;;;;;;;6.47;4.20;;;;;;;28.71;20.76;102598.69;5024497;28;20668;-69
2022/05/01 09:55:31;;;;;;;6.18;4.20;;;;;;;28.92;19.44;102586.66;5017775;28;20044;-69
2022/05/01 09:58:08;;;;;;;5.30;4.30;;;;;;;28.63;19.26;102587.50;5013387;28;20117;-70
2022/05/01 10:00:39;;;;;;;9.75;3.75;;;;;;;29.41;19.55;102584.59;5017159;28;20041;-70
2022/05/01 10:03:31;;;;;;;5.85;3.97;;;;;;;28.18;19.76;102580.22;5002352;28;20026;-70
2022/05/01 10:05:58;;;;;;;4.40;3.40;;;;;;;27.10;20.56;102591.44;5011906;28;20397;-70
2022/05/01 10:08:24;;;;;;;5.70;4.05;;;;;;;27.72;21.77;102583.63;5025311;28;20026;-69
2022/05/01 10:10:54;;;;;;;6.55;3.63;;;;;;;27.33;20.30;102586.69;5023043;28;20121;-70
2022/05/01 10:13:24;;;;;;;6.22;3.40;;;;;;;26.33;21.43;102580.09;5021829;28;20032;-69
2022/05/01 10:15:50;;;;;;;6.90;3.95;;;;;;;28.10;20.18;102571.72;5026860;28;20279;-69
2022/05/01 10:18:16;;;;;;;4.50;3.60;;;;;;;26.63;20.90;102586.69;5032982;28;20033;-69
2022/05/01 10:20:42;;;;;;;6.65;3.55;;;;;;;27.84;21.44;102579.41;5018551;28;20040;-72
2022/05/01 10:23:10;;;;;;;7.13;3.95;;;;;;;26.96;20.41;102584.13;5028471;28;20033;-71
2022/05/01 10:25:37;;;;;;;7.03;4.10;;;;;;;28.80;20.52;102576.63;5027863;28;20029;-71
2022/05/01 10:28:40;;;;;;;6.28;3.70;;;;;;;28.21;19.74;102566.59;5026972;28;20038;-71
2022/05/01 10:34:24;;;;;;;4.97;3.30;;;;;;;26.74;20.89;102562.91;5030746;28;20104;-71
2022/05/01 10:37:15;;;;;;;5.78;3.35;;;;;;;27.41;20.57;102557.63;5026310;28;20029;-71
2022/05/01 10:39:42;;;;;;;7.07;3.50;;;;;;;27.66;19.27;102553.59;5026782;28;20032;-69
2022/05/01 10:42:08;;;;;;;4.40;2.97;;;;;;;27.89;19.01;102557.66;5025287;28;20060;-71
2022/05/01 10:44:40;;;;;;;4.30;3.10;;;;;;;28.57;18.69;102560.00;5027296;28;20653;-72
2022/05/01 10:47:14;;;;;;;5.07;3.30;;;;;;;26.75;20.11;102562.81;5021289;28;20021;-71
2022/05/01 10:49:44;;;;;;;4.15;3.35;;;;;;;27.10;20.32;102548.50;5033152;28;20025;-72
2022/05/01 10:52:16;;;;;;;10.02;3.55;;;;;;;27.00;20.37;102556.19;5032521;28;20392;-69
2022/05/01 10:54:58;;;;;;;6.78;3.85;;;;;;;28.42;20.12;102550.16;5031343;28;20663;-69
2022/05/01 10:57:24;;;;;;;6.93;3.03;;;;;;;28.40;20.08;102546.72;5027152;28;20082;-69
2022/05/01 11:00:00;;;;;;;6.85;3.28;;;;;;;26.54;20.17;102550.47;5028332;28;20033;-69
2022/05/01 11:02:46;;;;;;;4.93;2.83;;;;;;;27.86;19.63;102542.59;5031658;28;20064;-69
2022/05/01 11:05:41;;;;;;;6.10;3.00;;;;;;;29.05;18.63;102537.47;5026348;28;20498;-69
2022/05/01 11:08:21;;;;;;;4.85;3.25;;;;;;;29.51;19.04;102523.81;5027294;28;20505;-68
2022/05/01 11:10:47;;;;;;;8.27;3.28;;;;;;;29.81;18.34;102525.47;5031610;28;20044;-69
2022/05/01 11:13:16;;;;;;;6.85;3.55;;;;;;;30.70;17.28;102524.03;5031593;28;20473;-69
2022/05/01 11:15:49;;;;;;;6.35;3.17;;;;;;;31.74;16.35;102522.13;5025257;28;20064;-69
2022/05/01 11:18:15;;;;;;;5.10;3.20;;;;;;;31.20;16.89;102521.50;5025874;28;20124;-69
2022/05/01 11:20:43;;;;;;;3.83;3.05;;;;;;;31.71;16.43;102514.25;5031413;28;20064;-68
2022/05/01 11:23:28;;;;;;;5.28;3.15;;;;;;;30.02;17.47;102514.25;5032366;28;20036;-69
2022/05/01 11:26:09;;;;;;;5.65;3.25;;;;;;;30.67;17.60;102515.31;5030619;28;20388;-71
2022/05/01 11:28:45;;;;;;;4.10;3.35;;;;;;;31.37;16.99;102501.34;5031607;28;20469;-71
2022/05/01 11:31:35;;;;;;;5.38;3.05;;;;;;;30.98;16.69;102511.31;5033870;28;20037;-71
2022/05/01 11:34:15;;;;;;;4.18;2.53;;;;;;;30.11;17.24;102501.03;5031789;28;20121;-71
2022/05/01 11:37:05;;;;;;;4.05;2.72;;;;;;;29.92;18.58;102496.03;5031454;28;20033;-71
2022/05/01 11:39:46;;;;;;;6.28;3.22;;;;;;;29.54;16.49;102496.69;5013172;28;20041;-71
2022/05/01 11:42:29;;;;;;;3.75;3.15;;;;;;;30.13;17.12;102498.25;5031514;28;20045;-71
2022/05/01 11:45:00;;;;;;;5.35;3.22;;;;;;;31.10;16.60;102493.41;5031219;28;20044;-71
2022/05/01 11:47:31;;;;;;;4.88;3.03;;;;;;;29.67;17.77;102490.50;5030061;28;20473;-71
2022/05/01 11:49:57;;;;;;;4.20;2.92;;;;;;;29.66;16.86;102492.31;5031685;28;20033;-71
2022/05/01 11:52:24;;;;;;;4.25;3.20;;;;;;;28.54;19.13;102490.28;5015869;28;20400;-71
2022/05/01 11:54:53;;;;;;;5.40;3.65;;;;;;;28.77;18.24;102479.97;5030354;28;20525;-71
2022/05/01 12:03:01;;;;;;;6.40;2.78;;;;;;;27.57;18.23;102480.66;5032417;28;20099;-71
2022/05/01 12:05:48;;;;;;;6.57;3.72;;;;;;;28.99;18.32;102462.47;5031624;28;20033;-71
2022/05/01 12:08:14;;;;;;;9.55;3.40;;;;;;;29.44;17.52;102460.53;5030969;28;20025;-71
2022/05/01 12:10:43;;;;;;;4.93;3.45;;;;;;;28.43;18.60;102468.56;5021972;28;20029;-71
2022/05/01 12:13:35;;;;;;;6.95;3.60;;;;;;;28.84;18.17;102453.53;5011645;28;20040;-71
2022/05/01 12:16:00;;;;;;;4.13;2.97;;;;;;;30.95;16.31;102461.13;5029410;28;20033;-71
2022/05/01 12:18:26;;;;;;;4.07;2.80;;;;;;;28.44;18.37;102451.47;5031692;28;20025;-72
2022/05/01 12:20:51;;;;;;;4.20;3.22;;;;;;;29.11;18.01;102457.19;5030463;28;20029;-71
2022/05/01 12:23:19;;;;;;;4.07;2.90;;;;;;;28.80;18.49;102452.88;5030572;28;20116;-71
2022/05/01 12:25:48;;;;;;;6.97;3.15;;;;;;;28.97;18.10;102453.66;5030915;28;20022;-71
2022/05/01 12:28:15;;;;;;;2.80;2.17;;;;;;;28.72;18.58;102439.03;5031171;28;20039;-71
2022/05/01 12:30:42;;;;;;;4.38;2.78;;;;;;;29.00;19.14;102448.91;5030334;28;20064;-71
2022/05/01 12:33:17;;;;;;;6.43;3.70;;;;;;;29.22;17.81;102442.16;5024677;28;20045;-71
2022/05/01 12:35:52;;;;;;;7.97;3.50;;;;;;;28.04;18.62;102437.72;5011451;28;20026;-70
2022/05/01 12:38:19;;;;;;;6.32;4.47;;;;;;;28.08;18.73;102434.78;5011597;28;20034;-71
2022/05/01 12:46:26;;;;;;;5.07;3.33;;;;;;;28.45;18.61;102428.97;5022464;28;20036;-71
2022/05/01 12:48:52;;;;;;;5.28;3.22;;;;;;;27.12;19.78;102431.25;5030548;28;20021;-70
2022/05/01 12:51:17;;;;;;;5.32;3.03;;;;;;;27.42;19.48;102430.47;5013696;28;20068;-71
2022/05/01 12:53:43;;;;;;;5.50;3.22;;;;;;;27.55;19.02;102431.53;5028988;28;20068;-71
2022/05/01 12:56:22;;;;;;;5.45;3.47;;;;;;;27.55;19.84;102426.16;5031587;28;20025;-71
2022/05/01 12:58:51;;;;;;;7.82;3.50;;;;;;;28.16;18.73;102418.16;5029759;28;20083;-71
2022/05/01 13:01:27;;;;;;;3.47;3.05;;;;;;;27.46;20.13;102415.94;5030147;28;20021;-70
2022/05/01 13:03:54;;;;;;;4.93;3.20;;;;;;;26.95;20.12;102420.56;5029932;28;20083;-71
2022/05/01 13:06:21;;;;;;;5.00;2.97;;;;;;;26.85;21.07;102421.06;5028528;28;20017;-70
2022/05/01 13:09:04;;;;;;;4.03;3.13;;;;;;;27.13;20.60;102421.34;5031216;28;20025;-71
2022/05/01 13:11:32;;;;;;;3.75;3.00;;;;;;;27.32;20.73;102415.84;5029714;28;20021;-71
2022/05/01 13:13:58;;;;;;;3.88;2.58;;;;;;;27.97;19.37;102414.81;5029197;28;20036;-70
2022/05/01 13:16:30;;;;;;;5.47;2.35;;;;;;;27.44;20.48;102417.84;5029186;28;20025;-71
2022/05/01 13:18:57;;;;;;;4.72;2.83;;;;;;;27.11;20.32;102408.03;5028314;28;20950;-70
2022/05/01 13:21:25;;;;;;;3.00;2.47;;;;;;;27.17;20.22;102409.50;5030531;28;20025;-71
2022/05/01 13:23:52;;;;;;;6.43;3.90;;;;;;;28.27;19.79;102413.03;5029166;28;20025;-70
2022/05/01 13:26:18;;;;;;;3.22;2.38;;;;;;;27.60;20.39;102412.44;5028891;28;20409;-70
2022/05/01 13:28:48;;;;;;;3.97;2.80;;;;;;;26.54;20.68;102406.59;5031155;28;20017;-69
2022/05/01 13:31:15;;;;;;;4.28;3.30;;;;;;;27.61;19.36;102405.28;5031602;28;20091;-71
2022/05/01 13:33:40;;;;;;;4.22;2.75;;;;;;;28.76;18.84;102394.84;5030055;28;20480;-69
2022/05/01 13:36:07;;;;;;;4.22;2.80;;;;;;;28.37;18.62;102399.00;5021439;28;20113;-68
2022/05/01 13:38:33;;;;;;;3.88;2.83;;;;;;;28.30;18.92;102394.97;5020096;28;20120;-69
2022/05/01 13:46:26;;;;;;;2.72;2.30;;;;;;;28.36;20.05;102394.59;5029681;28;20040;-69
2022/05/01 13:48:53;;;;;;;5.32;2.83;;;;;;;27.39;19.95;102382.34;5030108;28;20037;-69
2022/05/01 13:51:20;;;;;;;3.50;2.72;;;;;;;27.34;19.78;102379.91;5029298;28;20478;-69
2022/05/01 13:53:46;;;;;;;2.90;2.50;;;;;;;27.89;20.11;102378.53;5028599;28;20029;-69
2022/05/01 13:56:11;;;;;;;5.72;2.90;;;;;;;26.58;20.35;102392.06;5019580;28;20394;-68
2022/05/01 13:58:37;;;;;;;5.70;3.00;;;;;;;27.48;20.00;102375.56;5018614;28;20125;-68
2022/05/01 14:01:02;;;;;;;5.38;2.80;;;;;;;28.18;19.61;102378.63;5030481;28;20029;-69
2022/05/01 14:03:28;;;;;;;4.80;2.45;;;;;;;25.71;21.08;102384.03;5030246;28;20025;-68
2022/05/01 14:05:53;;;;;;;6.38;2.85;;;;;;;25.99;21.21;102371.91;5029135;28;20022;-68
2022/05/01 14:08:18;;;;;;;6.28;3.10;;;;;;;26.40;21.28;102371.59;5028097;28;20025;-69
2022/05/01 14:10:44;;;;;;;4.97;3.03;;;;;;;27.44;20.17;102369.53;5028329;28;20056;-68
2022/05/01 14:13:09;;;;;;;6.32;3.05;;;;;;;27.74;19.79;102366.88;5029771;28;20028;-69
2022/05/01 14:15:35;;;;;;;4.55;2.47;;;;;;;27.73;20.96;102358.91;5027413;28;20116;-69
2022/05/01 14:18:03;;;;;;;4.60;2.90;;;;;;;27.36;19.78;102358.38;5021671;28;20112;-72
2022/05/01 14:20:31;;;;;;;5.13;2.88;;;;;;;27.89;19.82;102357.03;5032664;28;20029;-69
2022/05/01 14:22:57;;;;;;;3.83;2.75;;;;;;;27.99;19.99;102353.81;5032889;28;20366;-69
2022/05/01 14:25:22;;;;;;;4.72;2.95;;;;;;;28.77;18.79;102345.47;5033776;28;20120;-68
2022/05/01 14:27:48;;;;;;;4.07;3.40;;;;;;;28.78;18.81;102344.47;5025735;28;20584;-69
2022/05/01 14:30:14;;;;;;;3.45;3.15;;;;;;;27.85;19.02;102344.75;5022343;28;20099;-71
2022/05/01 14:32:51;;;;;;;4.07;3.28;;;;;;;27.51;19.50;102344.06;5032801;28;20017;-69
2022/05/01 14:35:21;;;;;;;8.13;3.47;;;;;;;25.53;21.06;102354.53;5032650;28;20036;-69
2022/05/01 14:37:55;;;;;;;5.95;3.10;;;;;;;25.23;21.55;102352.38;5032797;28;20028;-69
2022/05/01 14:40:24;;;;;;;6.57;3.55;;;;;;;26.32;20.62;102344.34;5022961;28;20030;-69
2022/05/01 14:42:50;;;;;;;7.55;3.60;;;;;;;27.41;20.40;102333.00;5014865;28;20081;-69
2022/05/01 14:45:18;;;;;;;4.00;3.20;;;;;;;27.40;20.24;102333.09;5033138;28;20053;-69
2022/05/01 14:47:54;;;;;;;5.97;3.90;;;;;;;26.16;21.14;102339.78;5033845;28;20456;-69
2022/05/01 14:50:20;;;;;;;5.15;3.15;;;;;;;27.08;21.04;102341.13;5023611;28;20029;-69
2022/05/01 14:52:52;;;;;;;5.38;3.50;;;;;;;26.69;21.39;102337.00;5013960;28;20072;-69
2022/05/01 14:55:20;;;;;;;4.50;3.67;;;;;;;25.57;22.34;102339.22;5032175;28;20056;-69
2022/05/01 14:57:48;;;;;;;5.40;3.35;;;;;;;26.50;21.06;102335.31;5031720;28;20047;-69
2022/05/01 15:08:51;;;;;;;6.05;3.83;;;;;;;26.88;21.31;102324.31;5008948;28;20026;-69
2022/05/01 15:11:16;;;;;;;6.80;4.07;;;;;;;26.38;21.40;102319.91;5028424;28;20030;-69
2022/05/01 15:13:42;;;;;;;3.75;3.25;;;;;;;26.70;20.95;102320.00;5030877;28;20040;-69
2022/05/01 15:16:16;;;;;;;4.60;3.47;;;;;;;27.29;20.99;102316.72;5032440;28;20029;-69
2022/05/01 15:19:00;;;;;;;8.35;3.75;;;;;;;26.40;21.42;102318.00;5032544;28;20025;-69
2022/05/01 15:24:50;;;;;;;7.32;4.03;;;;;;;25.80;22.23;102324.66;5031533;28;20117;-69
2022/05/01 15:27:52;;;;;;;5.15;3.75;;;;;;;26.31;22.30;102313.13;5031349;28;20513;-69
2022/05/01 15:30:24;;;;;;;5.67;4.40;;;;;;;26.67;21.45;102310.25;5031674;28;20037;-69
2022/05/01 15:33:42;;;;;;;7.28;3.78;;;;;;;26.91;21.31;102308.06;5020835;28;20409;-69
2022/05/01 15:36:08;;;;;;;6.15;3.85;;;;;;;25.64;23.64;102313.00;5019704;28;20068;-70
2022/05/01 15:38:47;;;;;;;4.82;3.50;;;;;;;26.77;21.26;102315.16;5031299;28;20025;-69
2022/05/01 15:41:30;;;;;;;4.68;3.53;;;;;;;27.13;21.96;102306.81;5031902;28;20530;-69
2022/05/01 15:44:00;;;;;;;6.32;4.00;;;;;;;27.66;20.49;102309.22;5028724;28;20076;-69
2022/05/01 15:46:30;;;;;;;8.57;4.28;;;;;;;26.45;22.50;102307.91;5011530;28;20033;-69
2022/05/01 15:54:30;;;;;;;4.55;3.38;;;;;;;26.76;21.13;102303.53;5031638;28;20095;-69
2022/05/01 15:56:58;;;;;;;5.07;3.75;;;;;;;26.33;21.93;102303.19;5032951;28;20029;-69
2022/05/01 15:59:25;;;;;;;4.45;3.33;;;;;;;26.83;21.47;102310.31;5030821;28;20116;-69
2022/05/01 16:01:53;;;;;;;6.03;3.92;;;;;;;27.46;21.31;102307.69;5029870;28;20025;-69
2022/05/01 16:04:20;;;;;;;6.18;3.83;;;;;;;26.84;22.21;102303.97;5030577;28;20547;-69
2022/05/01 16:06:47;;;;;;;7.47;4.50;;;;;;;25.82;23.05;102301.34;5030304;28;20469;-69
2022/05/01 16:09:33;;;;;;;6.97;5.00;;;;;;;26.52;23.25;102303.06;5030767;28;20029;-70
2022/05/01 16:12:21;;;;;;;8.93;5.60;;;;;;;24.59;25.46;102308.13;5030675;28;20029;-69
2022/05/01 16:14:52;;;;;;;9.10;4.75;;;;;;;25.34;24.95;102316.25;5021497;28;20034;-69
2022/05/01 16:17:56;;;;;;;7.72;4.93;;;;;;;25.70;25.07;102323.38;5011480;28;20040;-69
2022/05/01 16:20:22;;;;;;;6.50;4.68;;;;;;;24.68;26.35;102314.91;4992894;28;20077;-69
2022/05/01 16:23:11;;;;;;;7.32;4.43;;;;;;;25.24;25.09;102322.00;5027041;28;20080;-69
2022/05/01 16:25:38;;;;;;;7.75;5.30;;;;;;;25.35;25.15;102313.50;5034793;28;20057;-69
2022/05/01 16:28:21;;;;;;;6.93;4.40;;;;;;;24.79;26.35;102315.25;5029388;28;20144;-69
2022/05/01 16:30:53;;;;;;;5.53;4.63;;;;;;;23.85;26.62;102312.25;5013590;28;20021;-69
2022/05/01 16:33:27;;;;;;;11.68;3.97;;;;;;;21.79;29.02;102316.47;5014804;28;20060;-69
2022/05/01 16:35:58;;;;;;;7.95;5.15;;;;;;;23.86;26.72;102307.75;5031034;28;20032;-69
2022/05/01 16:38:23;;;;;;;8.02;4.93;;;;;;;23.14;27.96;102307.16;5028159;28;20439;-69
2022/05/01 16:40:53;;;;;;;8.43;4.85;;;;;;;22.81;28.12;102307.50;5015409;28;20040;-69
2022/05/01 16:43:20;;;;;;;9.68;4.85;;;;;;;23.41;27.13;102306.97;5029460;28;20084;-69
2022/05/01 16:45:49;;;;;;;5.72;4.00;;;;;;;24.10;26.19;102299.66;5031529;28;20060;-69
2022/05/01 16:48:16;;;;;;;10.15;4.60;;;;;;;23.45;27.51;102307.72;5029833;28;20374;-69
2022/05/01 16:50:42;;;;;;;8.50;4.60;;;;;;;23.62;27.28;102296.34;5029836;28;20026;-69
2022/05/01 16:53:09;;;;;;;7.70;4.60;;;;;;;23.28;27.47;102309.25;5029646;28;20503;-69
2022/05/01 16:55:34;;;;;;;7.38;4.65;;;;;;;23.03;28.02;102312.03;5031664;28;20137;-69
2022/05/01 16:58:01;;;;;;;7.43;4.57;;;;;;;22.72;28.33;102302.53;5029630;28;20112;-69
2022/05/01 17:00:28;;;;;;;7.97;4.65;;;;;;;23.81;27.30;102310.66;5010910;28;20104;-69
2022/05/01 17:03:15;;;;;;;5.82;4.25;;;;;;;24.15;26.90;102313.66;5017000;28;20025;-69
2022/05/01 17:05:51;;;;;;;8.70;4.60;;;;;;;22.48;28.67;102315.00;5023358;28;20025;-69
2022/05/01 17:08:27;;;;;;;7.07;5.25;;;;;;;24.24;27.00;102313.28;5010524;28;20034;-69
2022/05/01 17:11:00;;;;;;;6.50;4.70;;;;;;;22.05;29.38;102314.72;4993191;28;20108;-69
2022/05/01 17:14:03;;;;;;;8.38;4.72;;;;;;;22.27;29.23;102312.16;5020766;28;20030;-69
2022/05/01 17:16:46;;;;;;;7.13;4.68;;;;;;;22.70;28.61;102307.06;5029130;28;20037;-70
2022/05/01 17:19:22;;;;;;;7.47;4.90;;;;;;;22.08;30.09;102306.63;5029288;28;20116;-69
2022/05/01 17:22:01;;;;;;;9.93;4.80;;;;;;;21.46;30.28;102308.66;5029684;28;20033;-69
2022/05/01 17:24:59;;;;;;;7.88;4.82;;;;;;;23.13;28.83;102302.75;5028337;28;20401;-69
2022/05/01 17:27:44;;;;;;;6.25;5.38;;;;;;;21.92;30.55;102302.75;5020808;28;20061;-69
2022/05/01 17:30:11;;;;;;;9.85;4.53;;;;;;;22.59;29.40;102295.94;5010195;28;20025;-69
2022/05/01 17:33:30;;;;;;;14.30;4.80;;;;;;;22.52;29.61;102301.50;5011179;28;20061;-69
2022/05/01 17:35:59;;;;;;;6.35;4.30;;;;;;;22.43;30.54;102295.63;5025130;28;20084;-69
2022/05/01 17:38:27;;;;;;;6.82;4.78;;;;;;;22.45;29.38;102299.09;5030557;28;20098;-69
2022/05/01 17:40:53;;;;;;;8.10;5.47;;;;;;;21.74;30.81;102301.59;5029340;28;20029;-69
2022/05/01 17:43:24;;;;;;;8.10;4.53;;;;;;;23.47;28.80;102306.72;5030130;28;20049;-69
2022/05/01 17:45:54;;;;;;;6.38;4.70;;;;;;;21.81;30.29;102303.97;5029023;28;20037;-69
2022/05/01 17:48:23;;;;;;;9.60;4.75;;;;;;;22.01;29.35;102295.31;5030063;28;20052;-69
2022/05/01 17:50:49;;;;;;;8.57;5.68;;;;;;;21.91;29.46;102307.19;5030638;28;20071;-69
2022/05/01 17:53:19;;;;;;;8.57;5.43;;;;;;;22.73;28.38;102309.59;5012367;28;20124;-69
2022/05/01 17:55:46;;;;;;;10.40;5.30;;;;;;;22.60;28.32;102303.88;5011325;28;20504;-69
2022/05/01 17:58:12;;;;;;;9.57;4.90;;;;;;;21.77;28.72;102314.78;5045945;28;20111;-69
2022/05/01 18:01:00;;;;;;;9.05;4.55;;;;;;;21.66;29.28;102310.69;5028378;28;20493;-69
2022/05/01 18:03:43;;;;;;;11.57;5.20;;;;;;;21.34;28.95;102315.25;5014193;28;20022;-70
2022/05/01 18:12:16;;;;;;;8.63;4.97;;;;;;;21.84;28.96;102297.69;5020209;28;20056;-70
2022/05/01 18:14:41;;;;;;;9.45;5.78;;;;;;;21.28;30.07;102317.22;5025735;28;20041;-69
2022/05/01 18:17:15;;;;;;;7.28;5.05;;;;;;;22.01;29.61;102305.97;5028587;28;20136;-69
2022/05/01 18:19:59;;;;;;;7.05;4.97;;;;;;;21.12;30.94;102306.22;5015055;28;20444;-69
2022/05/01 18:22:33;;;;;;;7.32;4.72;;;;;;;20.82;32.12;102312.41;5015842;28;20116;-69
2022/05/01 18:25:07;;;;;;;10.68;5.95;;;;;;;22.53;29.93;102311.22;5028451;28;20079;-69
2022/05/01 18:27:53;;;;;;;10.55;5.50;;;;;;;21.62;31.40;102313.50;5010273;28;20392;-70
2022/05/01 18:30:19;;;;;;;10.15;6.10;;;;;;;21.27;32.07;102313.69;5024162;28;20089;-69
2022/05/01 18:33:09;;;;;;;9.68;5.72;;;;;;;21.75;31.27;102314.84;5027543;28;20228;-69
2022/05/01 18:35:38;;;;;;;18.77;5.82;;;;;;;21.99;30.99;102312.25;5021405;28;20025;-69
2022/05/01 18:38:29;;;;;;;9.30;6.10;;;;;;;20.76;33.09;102315.25;5023183;28;20117;-69
2022/05/01 18:41:04;;;;;;;9.27;5.60;;;;;;;22.28;30.83;102313.00;5027321;28;20511;-69
2022/05/01 18:43:31;;;;;;;9.85;6.30;;;;;;;21.22;31.96;102320.09;5024579;28;20049;-69
2022/05/01 18:46:02;;;;;;;13.48;6.43;;;;;;;20.79;33.02;102316.94;5026307;28;20528;-70
2022/05/01 18:48:30;;;;;;;12.05;6.47;;;;;;;21.14;32.98;102325.63;5026662;28;20413;-72
2022/05/01 18:50:58;;;;;;;11.32;6.80;;;;;;;21.07;32.56;102327.59;5030549;28;20033;-72
2022/05/01 18:53:29;;;;;;;11.82;6.80;;;;;;;21.55;32.06;102327.94;5013095;28;20056;-72
2022/05/01 18:55:56;;;;;;;11.85;7.32;;;;;;;19.77;34.89;102340.84;5014782;28;20021;-72
2022/05/01 18:58:22;;;;;;;12.18;6.97;;;;;;;20.89;33.19;102334.34;5028946;28;20083;-72
2022/05/01 19:00:54;;;;;;;11.30;7.00;;;;;;;20.80;33.24;102335.50;5028675;28;20033;-71
2022/05/01 19:03:20;;;;;;;12.23;6.82;;;;;;;20.15;34.26;102342.59;5027422;28;20079;-71
2022/05/01 19:05:51;;;;;;;11.55;6.22;;;;;;;20.80;33.33;102338.16;5017346;28;20034;-72
2022/05/01 19:08:35;;;;;;;16.67;7.35;;;;;;;20.66;33.74;102329.66;5031146;28;20041;-72
2022/05/01 19:11:26;;;;;;;8.93;6.67;;;;;;;21.21;32.81;102343.13;5027062;28;20034;-70
2022/05/01 19:14:00;;;;;;;13.17;7.37;;;;;;;20.97;33.11;102344.75;5032804;28;20116;-70
2022/05/01 19:16:36;;;;;;;13.00;7.40;;;;;;;20.87;33.91;102345.94;5030458;28;20037;-69
2022/05/01 19:19:13;;;;;;;13.20;7.30;;;;;;;20.96;33.24;102345.66;5031948;28;20037;-70
2022/05/01 19:21:53;;;;;;;12.70;7.47;;;;;;;20.31;34.32;102347.47;5028052;28;20040;-70
2022/05/01 19:27:38;;;;;;;12.20;7.53;;;;;;;20.27;34.33;102356.44;5030580;28;20036;-69
2022/05/01 19:30:08;;;;;;;15.80;8.10;;;;;;;19.59;35.92;102355.44;5031183;28;20431;-70
2022/05/01 19:32:33;;;;;;;12.63;6.70;;;;;;;18.98;37.01;102367.38;5029805;28;20034;-69
2022/05/01 19:35:20;;;;;;;14.00;7.57;;;;;;;19.94;35.59;102359.06;5030121;28;20108;-69
2022/05/01 19:37:53;;;;;;;12.97;7.47;;;;;;;20.20;34.88;102368.13;5027348;28;20036;-70
2022/05/01 19:40:33;;;;;;;12.33;7.53;;;;;;;19.99;35.54;102370.44;5034097;28;20041;-70
2022/05/01 19:43:11;;;;;;;15.07;7.77;;;;;;;19.96;35.13;102367.84;4996200;28;20061;-70
2022/05/01 19:46:07;;;;;;;10.73;7.23;;;;;;;20.33;34.97;102361.56;5028774;28;20033;-70
2022/05/01 19:54:43;;;;;;;14.93;8.67;;;;;;;19.26;36.92;102365.91;5032737;28;20474;-70
2022/05/01 19:57:14;;;;;;;14.17;8.80;;;;;;;19.35;37.02;102370.16;5031394;28;20032;-69
2022/05/01 19:59:41;;;;;;;16.60;8.93;;;;;;;19.50;38.06;102370.66;5032237;28;20033;-70
2022/05/01 20:02:12;;;;;;;15.87;8.53;;;;;;;19.77;36.18;102362.97;5031449;28;20033;-70
2022/05/01 20:04:37;;;;;;;17.23;9.00;;;;;;;19.96;35.64;102370.47;5030454;28;20033;-70
2022/05/01 20:07:03;;;;;;;18.10;9.03;;;;;;;19.60;36.53;102370.44;5030496;28;20032;-70
2022/05/01 20:09:34;;;;;;;16.97;8.90;;;;;;;19.76;36.11;102365.66;5014555;28;20124;-70
2022/05/01 20:11:59;;;;;;;17.93;8.80;;;;;;;20.13;35.91;102360.31;5029201;28;20048;-70
2022/05/01 20:14:25;;;;;;;17.63;9.30;;;;;;;20.27;35.38;102367.06;5030870;28;20045;-70
2022/05/01 20:16:58;;;;;;;18.53;9.17;;;;;;;20.20;35.86;102370.78;5027241;28;20375;-70
2022/05/01 20:19:29;;;;;;;16.30;8.93;;;;;;;20.15;35.63;102376.19;5012569;28;20034;-70
2022/05/01 20:22:18;;;;;;;19.27;9.27;;;;;;;20.19;36.31;102369.03;5022914;28;20554;-70
2022/05/01 20:25:12;;;;;;;18.10;8.90;;;;;;;20.37;36.00;102373.84;5030312;28;20039;-70
2022/05/01 20:27:59;;;;;;;17.83;9.60;;;;;;;20.26;35.93;102370.63;5022620;28;20116;-70
2022/05/01 20:30:51;;;;;;;15.40;9.30;;;;;;;20.42;35.83;102363.97;5026285;28;20132;-71
2022/05/01 20:33:39;;;;;;;17.17;9.73;;;;;;;20.38;35.90;102362.31;5034240;28;20054;-70
2022/05/01 20:36:18;;;;;;;15.00;8.87;;;;;;;20.41;35.84;102367.53;5024474;28;20025;-70
2022/05/01 20:39:04;;;;;;;14.83;8.83;;;;;;;19.88;36.78;102365.38;5046470;28;20492;-70
2022/05/01 20:41:57;;;;;;;17.03;9.30;;;;;;;19.95;36.51;102360.81;5028281;28;20022;-70
2022/05/01 20:44:45;;;;;;;22.08;9.20;;;;;;;20.10;37.20;102365.72;5027003;28;20037;-70
2022/05/01 20:47:25;;;;;;;22.30;10.10;;;;;;;20.30;36.27;102361.66;5029102;28;20061;-70
2022/05/01 20:50:05;;;;;;;15.67;9.40;;;;;;;20.20;36.41;102354.88;5024141;28;20038;-70
2022/05/01 20:52:58;;;;;;;18.70;9.37;;;;;;;19.63;37.33;102362.41;5012509;28;20040;-70
2022/05/01 20:55:24;;;;;;;;;;;;;;;20.07;36.73;102355.19;5030346;28;20029;-70
2022/05/01 20:57:51;;;;;;;18.30;10.10;;;;;;;20.16;36.57;102356.72;5031270;28;20360;-71
2022/05/01 21:00:17;;;;;;;15.27;9.77;;;;;;;20.10;36.63;102360.41;5023253;28;20049;-70
2022/05/01 21:02:45;;;;;;;15.87;9.73;;;;;;;19.78;37.72;102359.41;5018949;28;20095;-70
2022/05/01 21:05:11;;;;;;;18.27;10.70;;;;;;;19.52;37.19;102365.31;5019941;28;20036;-71
2022/05/01 21:07:38;;;;;;;19.30;10.03;;;;;;;20.00;36.56;102365.09;5029329;28;20425;-70
2022/05/01 21:10:11;;;;;;;18.57;10.93;;;;;;;19.49;37.61;102357.44;5031138;28;20024;-70
2022/05/01 21:12:37;;;;;;;17.07;10.50;;;;;;;19.46;37.64;102355.72;5023416;28;20026;-70
2022/05/01 21:15:04;;;;;;;20.20;9.60;;;;;;;19.59;37.61;102356.34;5026135;28;20424;-71
2022/05/01 21:17:30;;;;;;;17.47;10.60;;;;;;;19.46;37.95;102358.38;5011492;28;20184;-69
2022/05/01 21:19:55;;;;;;;18.77;10.00;;;;;;;19.48;37.69;102356.56;5026563;28;20104;-70